Glasgow International Airport – EGPF

METAR:

EGPF 290220Z AUTO VRB01KT 9999 NCD M02/M03 Q1013


TAF:

TAF EGPF 281659Z 2818/2918 31007KT 9999 FEW030 PROB40 TEMPO 2906/2908 8000 TEMPO 2908/2918 6000 -RA BKN010 BECMG 2910/2912 24010KT PROB40 TEMPO 2911/2918 4000 RADZ BKN006


Prestwick International Airport – EGPK

METAR:

EGPK 290220Z 09005KT CAVOK M02/M03 Q1013


TAF:

TAF EGPK 281659Z 2818/2918 36005KT 9999 FEW020 PROB30 TEMPO 2908/2913 8000 -RA BKN012 BECMG 2909/2912 24012KT TEMPO 2913/2918 26018G28KT 6000 -RADZ BKN012 PROB40 2914/2918 4000 RADZ BKN006